createdAt,value
2024-05-09T00:00:04.924Z,0.00
2024-05-09T00:01:03.526Z,0.00
2024-05-09T00:02:03.504Z,0.00
2024-05-09T00:03:03.492Z,0.00
2024-05-09T00:04:03.577Z,0.00
2024-05-09T00:05:03.667Z,0.00
2024-05-09T00:06:03.633Z,0.00
2024-05-09T00:07:03.409Z,0.00
2024-05-09T00:08:03.448Z,0.00
2024-05-09T00:09:03.407Z,0.00
2024-05-09T00:10:05.611Z,0.00
2024-05-09T00:11:04.506Z,0.00
2024-05-09T00:12:03.523Z,0.00
2024-05-09T00:13:03.338Z,0.00
2024-05-09T00:14:03.534Z,0.00
2024-05-09T00:15:03.306Z,0.00
2024-05-09T00:16:03.297Z,0.00
2024-05-09T00:17:03.346Z,0.00
2024-05-09T00:18:03.885Z,0.00
2024-05-09T00:19:03.407Z,0.00
2024-05-09T00:20:06.927Z,0.00
2024-05-09T00:21:04.477Z,0.00
2024-05-09T00:22:03.204Z,0.00
2024-05-09T00:23:03.287Z,0.00
2024-05-09T00:24:03.371Z,0.00
2024-05-09T00:25:03.189Z,0.00
2024-05-09T00:26:03.212Z,0.00
2024-05-09T00:27:03.140Z,0.00
2024-05-09T00:28:03.178Z,0.00
2024-05-09T00:29:03.135Z,0.00
2024-05-09T00:30:04.237Z,0.00
2024-05-09T00:31:03.106Z,0.00
2024-05-09T00:32:03.200Z,0.00
2024-05-09T00:33:03.781Z,0.00
2024-05-09T00:34:03.366Z,0.00
2024-05-09T00:35:03.108Z,0.00
2024-05-09T00:36:03.049Z,0.00
2024-05-09T00:37:03.033Z,0.00
2024-05-09T00:38:03.213Z,0.00
2024-05-09T00:39:02.999Z,0.00
2024-05-09T00:40:03.557Z,0.00
2024-05-09T00:41:03.043Z,0.00
2024-05-09T00:42:02.966Z,0.00
2024-05-09T00:43:02.924Z,0.00
2024-05-09T00:44:02.988Z,0.00
2024-05-09T00:45:02.929Z,0.00
2024-05-09T00:46:02.890Z,0.00
2024-05-09T00:47:02.939Z,0.00
2024-05-09T00:48:03.268Z,0.00
2024-05-09T00:49:02.923Z,0.00
2024-05-09T00:50:04.129Z,0.00
2024-05-09T00:51:02.920Z,0.00
2024-05-09T00:52:02.815Z,0.00
2024-05-09T00:53:02.855Z,0.00
2024-05-09T00:54:02.790Z,0.00
2024-05-09T00:55:02.802Z,0.00
2024-05-09T00:56:02.823Z,0.00
2024-05-09T00:57:02.760Z,0.00
2024-05-09T00:58:02.742Z,0.00
2024-05-09T00:59:02.780Z,0.00
2024-05-09T01:00:03.649Z,0.00
2024-05-09T01:01:02.786Z,0.00
2024-05-09T01:02:02.880Z,0.00
2024-05-09T01:03:02.950Z,0.00
2024-05-09T01:04:02.776Z,0.00
2024-05-09T01:05:02.842Z,0.00
2024-05-09T01:06:02.660Z,0.00
2024-05-09T01:07:02.623Z,0.00
2024-05-09T01:08:03.036Z,0.00
2024-05-09T01:09:02.599Z,0.00
2024-05-09T01:10:03.223Z,0.00
2024-05-09T01:11:02.670Z,0.00
2024-05-09T01:12:02.717Z,0.00
2024-05-09T01:13:02.583Z,0.00
2024-05-09T01:14:02.544Z,0.00
2024-05-09T01:15:02.547Z,0.00
2024-05-09T01:16:02.602Z,0.00
2024-05-09T01:17:02.510Z,0.00
2024-05-09T01:18:02.781Z,0.00
2024-05-09T01:19:02.591Z,0.00
2024-05-09T01:20:03.238Z,0.00
2024-05-09T01:21:02.486Z,0.00
2024-05-09T01:22:02.443Z,0.00
2024-05-09T01:23:02.607Z,0.00
2024-05-09T01:24:02.406Z,0.00
2024-05-09T01:25:02.368Z,0.00
2024-05-09T01:26:02.419Z,0.00
2024-05-09T01:27:02.364Z,0.00
2024-05-09T01:28:02.403Z,0.00
2024-05-09T01:29:02.378Z,0.00
2024-05-09T01:30:04.105Z,0.00
2024-05-09T01:31:02.339Z,0.00
2024-05-09T01:32:02.409Z,0.00
2024-05-09T01:33:02.488Z,0.00
2024-05-09T01:34:02.386Z,0.00
2024-05-09T01:35:02.365Z,0.00
2024-05-09T01:36:02.231Z,0.00
2024-05-09T01:37:02.272Z,0.00
2024-05-09T01:38:02.467Z,0.00
2024-05-09T01:39:02.205Z,0.00
2024-05-09T01:40:02.246Z,0.00
2024-05-09T01:41:02.210Z,0.00
2024-05-09T01:42:02.151Z,0.00
2024-05-09T01:43:02.148Z,0.00
2024-05-09T01:44:02.170Z,0.00
2024-05-09T01:45:02.147Z,0.00
2024-05-09T01:46:02.116Z,0.00
2024-05-09T01:47:02.119Z,0.00
2024-05-09T01:48:02.793Z,0.00
2024-05-09T01:49:02.153Z,0.00
2024-05-09T01:50:02.200Z,0.00
2024-05-09T01:51:02.152Z,0.00
2024-05-09T01:52:02.008Z,0.00
2024-05-09T01:53:02.066Z,0.00
2024-05-09T01:54:02.022Z,0.00
2024-05-09T01:55:04.621Z,0.00
2024-05-09T01:56:02.028Z,0.00
2024-05-09T01:57:01.944Z,0.00
2024-05-09T01:58:01.997Z,0.00
2024-05-09T01:59:02.022Z,0.00
2024-05-09T02:00:01.916Z,0.00
2024-05-09T02:01:02.007Z,0.00
2024-05-09T02:02:02.195Z,0.00
2024-05-09T02:03:02.191Z,0.00
2024-05-09T02:04:02.331Z,0.00
2024-05-09T02:05:02.030Z,0.00
2024-05-09T02:06:02.030Z,0.00
2024-05-09T02:07:01.830Z,0.00
2024-05-09T02:08:01.941Z,0.00
2024-05-09T02:09:01.805Z,0.00
2024-05-09T02:10:02.084Z,0.00
2024-05-09T02:11:01.992Z,0.00
2024-05-09T02:12:01.963Z,0.00
2024-05-09T02:13:01.774Z,0.00
2024-05-09T02:14:01.823Z,0.00
2024-05-09T02:15:01.744Z,0.00
2024-05-09T02:16:01.758Z,0.00
2024-05-09T02:17:01.807Z,0.00
2024-05-09T02:18:01.926Z,0.00
2024-05-09T02:19:01.852Z,0.00
2024-05-09T02:20:01.797Z,0.00
2024-05-09T02:21:01.833Z,0.00
2024-05-09T02:22:01.629Z,0.00
2024-05-09T02:23:01.701Z,0.00
2024-05-09T02:24:01.602Z,0.00
2024-05-09T02:25:01.610Z,0.00
2024-05-09T02:26:01.703Z,0.00
2024-05-09T02:27:01.611Z,0.00
2024-05-09T02:28:01.580Z,0.00
2024-05-09T02:29:01.565Z,0.00
2024-05-09T02:30:01.588Z,0.00
2024-05-09T02:31:01.521Z,0.00
2024-05-09T02:32:01.622Z,0.00
2024-05-09T02:33:01.747Z,0.00
2024-05-09T02:34:01.974Z,0.00
2024-05-09T02:35:01.644Z,0.00
2024-05-09T02:36:01.475Z,0.00
2024-05-09T02:37:01.432Z,0.00
2024-05-09T02:38:01.502Z,0.00
2024-05-09T02:39:01.446Z,0.00
2024-05-09T02:40:01.497Z,0.00
2024-05-09T02:41:01.408Z,0.00
2024-05-09T02:42:01.391Z,0.00
2024-05-09T02:43:01.378Z,0.00
2024-05-09T02:44:01.413Z,0.00
2024-05-09T02:45:01.376Z,0.00
2024-05-09T02:46:01.320Z,0.00
2024-05-09T02:47:01.369Z,0.00
2024-05-09T02:48:02.131Z,0.00
2024-05-09T02:49:01.447Z,0.00
2024-05-09T02:50:01.330Z,0.00
2024-05-09T02:51:01.287Z,0.00
2024-05-09T02:52:01.225Z,0.00
2024-05-09T02:53:01.473Z,0.00
2024-05-09T02:54:01.226Z,0.00
2024-05-09T02:55:01.257Z,0.00
2024-05-09T02:56:01.221Z,0.00
2024-05-09T02:57:01.174Z,0.00
2024-05-09T02:58:01.193Z,0.00
2024-05-09T02:59:01.183Z,0.00
2024-05-09T03:00:01.165Z,0.00
2024-05-09T03:01:01.269Z,0.00
2024-05-09T03:02:01.200Z,0.00
2024-05-09T03:03:01.316Z,0.00
2024-05-09T03:04:01.223Z,0.00
2024-05-09T03:05:01.090Z,0.00
2024-05-09T03:06:01.068Z,0.00
2024-05-09T03:07:01.040Z,0.00
2024-05-09T03:08:01.196Z,0.00
2024-05-09T03:09:01.034Z,0.00
2024-05-09T03:10:00.993Z,0.00
2024-05-09T03:11:01.065Z,0.00
2024-05-09T03:12:01.054Z,0.00
2024-05-09T03:13:00.959Z,0.00
2024-05-09T03:14:01.017Z,0.00
2024-05-09T03:15:00.933Z,0.00
2024-05-09T03:16:00.937Z,0.00
2024-05-09T03:17:01.015Z,0.00
2024-05-09T03:18:01.532Z,0.00
2024-05-09T03:19:01.007Z,0.00
2024-05-09T03:20:00.892Z,0.00
2024-05-09T03:21:01.033Z,0.00
2024-05-09T03:22:00.861Z,0.00
2024-05-09T03:23:00.841Z,0.00
2024-05-09T03:24:00.825Z,0.00
2024-05-09T03:25:00.830Z,0.00
2024-05-09T03:26:00.994Z,0.00
2024-05-09T03:27:00.801Z,0.00
2024-05-09T03:28:00.760Z,0.00
2024-05-09T03:29:00.787Z,0.00
2024-05-09T03:30:00.732Z,0.00
2024-05-09T03:31:00.731Z,0.00
2024-05-09T03:32:00.890Z,0.00
2024-05-09T03:33:00.971Z,0.00
2024-05-09T03:34:00.836Z,0.00
2024-05-09T03:35:00.743Z,0.00
2024-05-09T03:36:00.676Z,0.00
2024-05-09T03:37:00.683Z,0.00
2024-05-09T03:38:00.725Z,0.00
2024-05-09T03:39:00.660Z,0.00
2024-05-09T03:40:00.676Z,0.00
2024-05-09T03:41:00.723Z,0.00
2024-05-09T03:42:00.652Z,0.00
2024-05-09T03:43:00.592Z,0.00
2024-05-09T03:44:00.669Z,0.00
2024-05-09T03:45:00.577Z,0.00
2024-05-09T03:46:00.537Z,0.00
2024-05-09T03:47:00.531Z,0.00
2024-05-09T03:49:00.543Z,0.00
2024-05-09T03:50:00.528Z,0.00
2024-05-09T03:51:00.500Z,0.00
2024-05-09T03:52:00.485Z,0.00
2024-05-09T03:53:00.821Z,0.00
2024-05-09T03:54:00.434Z,0.00
2024-05-09T03:55:00.411Z,0.00
2024-05-09T03:56:00.523Z,0.00
2024-05-09T03:57:00.403Z,0.00
2024-05-09T03:58:00.387Z,0.00
2024-05-09T03:59:00.412Z,0.00
2024-05-09T04:00:00.369Z,0.00
2024-05-09T04:01:00.375Z,0.00
2024-05-09T04:02:00.506Z,0.00
2024-05-09T04:03:00.479Z,0.00
2024-05-09T04:04:00.356Z,0.00
2024-05-09T04:05:00.398Z,0.00
2024-05-09T04:06:00.297Z,0.00
2024-05-09T04:07:00.381Z,0.00
2024-05-09T04:08:00.337Z,0.00
2024-05-09T04:09:00.234Z,0.00
2024-05-09T04:10:00.351Z,0.00
2024-05-09T04:11:00.259Z,0.00
2024-05-09T04:12:00.357Z,0.00
2024-05-09T04:13:00.158Z,0.00
2024-05-09T04:14:00.225Z,0.00
2024-05-09T04:15:00.184Z,0.00
2024-05-09T04:16:00.138Z,0.00
2024-05-09T04:17:00.156Z,0.00
2024-05-09T04:18:01.061Z,5.62
2024-05-09T04:19:00.154Z,5.62
2024-05-09T04:20:00.189Z,5.62
2024-05-09T04:21:00.107Z,5.62
2024-05-09T04:22:00.092Z,5.62
2024-05-09T04:23:00.104Z,5.62
2024-05-09T04:24:00.021Z,5.62
2024-05-09T04:25:00.015Z,5.62
2024-05-09T04:26:00.026Z,5.62
2024-05-09T04:26:59.986Z,5.62
2024-05-09T04:27:59.976Z,5.62
2024-05-09T04:29:00.028Z,5.62
2024-05-09T04:29:59.946Z,5.62
2024-05-09T04:30:59.940Z,5.62
2024-05-09T04:32:00.081Z,5.62
2024-05-09T04:33:00.077Z,5.62
2024-05-09T04:34:00.065Z,5.62
2024-05-09T04:34:59.893Z,5.62
2024-05-09T04:35:59.862Z,5.62
2024-05-09T04:36:59.860Z,5.62
2024-05-09T04:37:59.928Z,5.62
2024-05-09T04:38:59.875Z,5.62
2024-05-09T04:39:59.809Z,5.62
2024-05-09T04:40:59.848Z,5.62
2024-05-09T04:41:59.794Z,5.62
2024-05-09T04:42:59.794Z,5.62
2024-05-09T04:43:59.795Z,5.62
2024-05-09T04:44:59.740Z,5.62
2024-05-09T04:45:59.726Z,5.62
2024-05-09T04:46:59.774Z,11.25
2024-05-09T04:48:00.219Z,11.25
2024-05-09T04:48:59.767Z,11.25
2024-05-09T04:49:59.692Z,11.25
2024-05-09T04:50:59.751Z,11.25
2024-05-09T04:51:59.664Z,11.25
2024-05-09T04:52:59.730Z,11.25
2024-05-09T04:53:59.630Z,11.25
2024-05-09T04:54:59.647Z,11.25
2024-05-09T04:55:59.664Z,11.25
2024-05-09T04:56:59.603Z,11.25
2024-05-09T04:57:59.609Z,11.25
2024-05-09T04:58:59.603Z,11.25
2024-05-09T04:59:59.551Z,11.25
2024-05-09T05:00:59.586Z,11.25
2024-05-09T05:01:59.628Z,11.25
2024-05-09T05:02:59.862Z,11.25
2024-05-09T05:03:59.665Z,11.25
2024-05-09T05:04:59.597Z,11.25
2024-05-09T05:05:59.642Z,11.25
2024-05-09T05:07:02.641Z,11.25
2024-05-09T05:07:59.542Z,11.25
2024-05-09T05:08:59.431Z,11.25
2024-05-09T05:09:59.425Z,16.88
2024-05-09T05:10:59.564Z,16.88
2024-05-09T05:11:59.556Z,16.88
2024-05-09T05:12:59.402Z,16.88
2024-05-09T05:13:59.398Z,16.88
2024-05-09T05:14:59.352Z,16.88
2024-05-09T05:15:59.352Z,16.88
2024-05-09T05:16:59.388Z,16.88
2024-05-09T05:17:59.485Z,16.88
2024-05-09T05:18:59.404Z,16.88
2024-05-09T05:19:59.359Z,22.50
2024-05-09T05:20:59.468Z,22.50
2024-05-09T05:21:59.308Z,22.50
2024-05-09T05:22:59.300Z,22.50
2024-05-09T05:23:59.255Z,22.50
2024-05-09T05:24:59.212Z,22.50
2024-05-09T05:25:59.279Z,22.50
2024-05-09T05:26:59.184Z,28.12
2024-05-09T05:27:59.221Z,28.12
2024-05-09T05:28:59.207Z,28.12
2024-05-09T05:29:59.175Z,28.12
2024-05-09T05:30:59.156Z,28.12
2024-05-09T05:31:59.246Z,28.12
2024-05-09T05:32:59.281Z,33.75
2024-05-09T05:33:59.206Z,33.75
2024-05-09T05:34:59.191Z,33.75
2024-05-09T05:35:59.095Z,33.75
2024-05-09T05:36:59.057Z,33.75
2024-05-09T05:37:59.181Z,39.38
2024-05-09T05:38:59.075Z,39.38
2024-05-09T05:39:59.024Z,39.38
2024-05-09T05:40:59.079Z,39.38
2024-05-09T05:41:59.005Z,39.38
2024-05-09T05:42:58.996Z,39.38
2024-05-09T05:43:59.052Z,39.38
2024-05-09T05:44:58.964Z,45.00
2024-05-09T05:45:58.952Z,45.00
2024-05-09T05:46:58.937Z,45.00
2024-05-09T05:47:59.167Z,45.00
2024-05-09T05:48:59.060Z,45.00
2024-05-09T05:49:58.928Z,45.00
2024-05-09T05:51:01.159Z,45.00
2024-05-09T05:52:02.194Z,50.62
2024-05-09T05:52:58.882Z,50.62
2024-05-09T05:53:58.822Z,50.62
2024-05-09T05:54:58.838Z,50.62
2024-05-09T05:55:58.834Z,50.62
2024-05-09T05:56:58.801Z,50.62
2024-05-09T05:57:58.786Z,50.62
2024-05-09T05:58:58.865Z,50.62
2024-05-09T05:59:58.755Z,50.62
2024-05-09T06:00:58.834Z,45.00
2024-05-09T06:01:58.798Z,45.00
2024-05-09T06:02:58.797Z,45.00
2024-05-09T06:03:58.791Z,45.00
2024-05-09T06:04:58.741Z,45.00
2024-05-09T06:05:58.783Z,50.62
2024-05-09T06:06:58.665Z,50.62
2024-05-09T06:07:58.707Z,50.62
2024-05-09T06:08:58.703Z,50.62
2024-05-09T06:09:58.620Z,50.62
2024-05-09T06:10:58.711Z,50.62
2024-05-09T06:11:58.683Z,50.62
2024-05-09T06:12:58.593Z,50.62
2024-05-09T06:13:58.597Z,50.62
2024-05-09T06:14:58.562Z,50.62
2024-05-09T06:15:58.536Z,50.62
2024-05-09T06:16:58.617Z,50.62
2024-05-09T06:17:59.233Z,50.62
2024-05-09T06:18:58.601Z,50.62
2024-05-09T06:19:58.521Z,50.62
2024-05-09T06:20:58.515Z,50.62
2024-05-09T06:21:58.551Z,50.62
2024-05-09T06:22:58.500Z,56.25
2024-05-09T06:23:58.447Z,56.25
2024-05-09T06:24:58.429Z,56.25
2024-05-09T06:25:58.489Z,56.25
2024-05-09T06:26:58.431Z,56.25
2024-05-09T06:27:58.432Z,56.25
2024-05-09T06:28:58.509Z,56.25
2024-05-09T06:29:58.362Z,56.25
2024-05-09T06:30:58.369Z,56.25
2024-05-09T06:32:00.313Z,56.25
2024-05-09T06:32:58.492Z,56.25
2024-05-09T06:33:58.502Z,56.25
2024-05-09T06:34:58.337Z,56.25
2024-05-09T06:35:58.283Z,61.88
2024-05-09T06:36:58.273Z,61.88
2024-05-09T06:37:58.328Z,61.88
2024-05-09T06:38:58.299Z,61.88
2024-05-09T06:39:58.226Z,61.88
2024-05-09T06:40:58.302Z,61.88
2024-05-09T06:41:58.210Z,61.88
2024-05-09T06:42:58.192Z,67.50
2024-05-09T06:43:58.257Z,67.50
2024-05-09T06:44:58.209Z,67.50
2024-05-09T06:45:58.157Z,67.50
2024-05-09T06:46:59.733Z,67.50
2024-05-09T06:47:58.399Z,67.50
2024-05-09T06:48:58.394Z,67.50
2024-05-09T06:49:58.132Z,67.50
2024-05-09T06:50:58.163Z,67.50
2024-05-09T06:51:58.061Z,67.50
2024-05-09T06:52:58.149Z,67.50
2024-05-09T06:53:58.049Z,67.50
2024-05-09T06:54:58.042Z,67.50
2024-05-09T06:55:58.107Z,67.50
2024-05-09T06:56:58.021Z,67.50
2024-05-09T06:57:58.006Z,67.50
2024-05-09T06:58:58.043Z,67.50
2024-05-09T06:59:57.956Z,67.50
2024-05-09T07:00:57.995Z,73.12
2024-05-09T07:01:57.988Z,73.12
2024-05-09T07:02:59.694Z,73.12
2024-05-09T07:03:57.966Z,73.12
2024-05-09T07:04:58.047Z,73.12
2024-05-09T07:05:57.933Z,73.12
2024-05-09T07:06:57.904Z,73.12
2024-05-09T07:07:57.914Z,73.12
2024-05-09T07:08:57.891Z,73.12
2024-05-09T07:09:57.845Z,73.12
2024-05-09T07:10:57.879Z,78.75
2024-05-09T07:11:57.931Z,78.75
2024-05-09T07:12:57.825Z,78.75
2024-05-09T07:13:57.807Z,78.75
2024-05-09T07:14:57.760Z,78.75
2024-05-09T07:15:57.761Z,78.75
2024-05-09T07:16:57.882Z,78.75
2024-05-09T07:17:57.986Z,78.75
2024-05-09T07:18:57.918Z,78.75
2024-05-09T07:19:57.749Z,84.38
2024-05-09T07:20:57.779Z,84.38
2024-05-09T07:21:57.686Z,84.38
2024-05-09T07:22:57.729Z,84.38
2024-05-09T07:23:57.706Z,84.38
2024-05-09T07:24:57.651Z,84.38
2024-05-09T07:25:57.687Z,84.38
2024-05-09T07:26:57.621Z,84.38
2024-05-09T07:27:57.600Z,84.38
2024-05-09T07:28:57.670Z,84.38
2024-05-09T07:29:57.605Z,84.38
2024-05-09T07:30:57.564Z,84.38
2024-05-09T07:31:57.559Z,84.38
2024-05-09T07:32:57.811Z,84.38
2024-05-09T07:33:57.631Z,78.75
2024-05-09T07:34:57.558Z,78.75
2024-05-09T07:35:57.498Z,78.75
2024-05-09T07:36:57.485Z,73.12
2024-05-09T07:37:57.553Z,78.75
2024-05-09T07:38:57.446Z,73.12
2024-05-09T07:39:57.468Z,84.38
2024-05-09T07:40:57.580Z,73.12
2024-05-09T07:41:57.439Z,84.38
2024-05-09T07:42:57.442Z,78.75
2024-05-09T07:43:57.451Z,78.75
2024-05-09T07:45:11.212Z,84.38
2024-05-09T07:46:13.201Z,84.38
2024-05-09T07:49:44.269Z,84.38
2024-05-09T07:51:48.017Z,84.38
2024-05-09T07:53:21.891Z,84.38
2024-05-09T07:53:35.733Z,84.38
2024-05-09T07:54:00.677Z,84.38
2024-05-09T07:54:57.371Z,78.75
2024-05-09T07:55:57.561Z,73.12
2024-05-09T07:56:57.477Z,73.12
2024-05-09T07:57:57.271Z,78.75
2024-05-09T07:58:57.182Z,73.12
2024-05-09T07:59:57.192Z,73.12
2024-05-09T08:00:57.232Z,73.12
2024-05-09T08:01:57.319Z,73.12
2024-05-09T08:02:57.218Z,73.12
2024-05-09T08:03:57.364Z,73.12
2024-05-09T08:04:57.216Z,73.12
2024-05-09T08:05:57.133Z,73.12
2024-05-09T08:06:57.157Z,78.75
2024-05-09T08:07:57.072Z,78.75
2024-05-09T08:08:59.155Z,78.75
2024-05-09T08:09:57.120Z,73.12
2024-05-09T08:10:57.050Z,78.75
2024-05-09T08:11:57.064Z,78.75
2024-05-09T08:12:57.041Z,78.75
2024-05-09T08:13:56.986Z,78.75
2024-05-09T08:14:56.971Z,84.38
2024-05-09T08:15:57.021Z,84.38
2024-05-09T08:16:56.983Z,90.00
2024-05-09T08:17:57.232Z,90.00
2024-05-09T08:18:57.028Z,95.62
2024-05-09T08:19:56.929Z,95.62
2024-05-09T08:20:56.892Z,95.62
2024-05-09T08:21:56.946Z,95.62
2024-05-09T08:22:56.880Z,90.00
2024-05-09T08:23:56.878Z,95.62
2024-05-09T08:24:56.970Z,95.62
2024-05-09T08:25:56.856Z,95.62
2024-05-09T08:26:56.838Z,101.25
2024-05-09T08:27:56.978Z,101.25
2024-05-09T08:28:56.806Z,101.25
2024-05-09T08:29:56.855Z,95.62
2024-05-09T08:30:56.860Z,101.25
2024-05-09T08:31:56.873Z,101.25
2024-05-09T08:32:56.841Z,101.25
2024-05-09T08:33:56.859Z,101.25
2024-05-09T08:34:56.959Z,101.25
2024-05-09T08:35:56.678Z,95.62
2024-05-09T08:36:59.705Z,106.88
2024-05-09T08:37:57.732Z,106.88
2024-05-09T08:38:56.653Z,112.50
2024-05-09T08:39:56.772Z,112.50
2024-05-09T08:40:56.658Z,101.25
2024-05-09T08:41:56.623Z,112.50
2024-05-09T08:42:56.706Z,112.50
2024-05-09T08:43:56.599Z,112.50
2024-05-09T08:44:56.593Z,112.50
2024-05-09T08:45:56.628Z,112.50
2024-05-09T08:46:56.584Z,112.50
2024-05-09T08:47:56.681Z,112.50
2024-05-09T08:48:56.768Z,112.50
2024-05-09T08:49:56.642Z,112.50
2024-05-09T08:50:56.533Z,112.50
2024-05-09T08:51:56.562Z,118.12
2024-05-09T08:52:56.461Z,118.12
2024-05-09T08:53:56.457Z,118.12
2024-05-09T08:54:56.484Z,118.12
2024-05-09T08:55:56.453Z,118.12
2024-05-09T08:56:56.414Z,118.12
2024-05-09T08:57:56.456Z,123.75
2024-05-09T08:58:56.413Z,123.75
2024-05-09T08:59:56.384Z,123.75
2024-05-09T09:00:56.458Z,123.75
2024-05-09T09:01:56.511Z,123.75
2024-05-09T09:02:56.391Z,123.75
2024-05-09T09:03:56.440Z,123.75
2024-05-09T09:04:56.374Z,123.75
2024-05-09T09:05:56.324Z,129.38
2024-05-09T09:06:58.224Z,129.38
2024-05-09T09:07:56.293Z,129.38
2024-05-09T09:08:56.288Z,129.38
2024-05-09T09:09:56.342Z,129.38
2024-05-09T09:10:56.306Z,129.38
2024-05-09T09:11:56.284Z,135.00
2024-05-09T09:12:56.374Z,135.00
2024-05-09T09:13:56.586Z,106.88
2024-05-09T09:14:56.207Z,129.38
2024-05-09T09:15:56.232Z,129.38
2024-05-09T09:16:56.149Z,135.00
2024-05-09T09:17:56.242Z,135.00
2024-05-09T09:18:56.276Z,135.00
2024-05-09T09:19:56.241Z,135.00
2024-05-09T09:20:56.175Z,140.62
2024-05-09T09:21:56.147Z,140.62
2024-05-09T09:22:56.086Z,140.62
2024-05-09T09:23:56.089Z,146.25
2024-05-09T09:24:56.130Z,140.62
2024-05-09T09:25:56.047Z,140.62
2024-05-09T09:26:56.067Z,140.62
2024-05-09T09:27:56.056Z,146.25
2024-05-09T09:28:55.997Z,151.88
2024-05-09T09:29:56.003Z,151.88
2024-05-09T09:30:56.022Z,146.25
2024-05-09T09:31:55.950Z,146.25
2024-05-09T09:32:56.036Z,146.25
2024-05-09T09:33:56.096Z,146.25
2024-05-09T09:34:55.998Z,146.25
2024-05-09T09:35:55.917Z,146.25
2024-05-09T09:36:55.906Z,45.00
2024-05-09T09:37:55.887Z,45.00
2024-05-09T09:38:55.869Z,39.38
2024-05-09T09:39:55.863Z,39.38
2024-05-09T09:40:55.970Z,45.00
2024-05-09T09:41:55.821Z,45.00
2024-05-09T09:42:55.886Z,45.00
2024-05-09T09:43:55.821Z,45.00
2024-05-09T09:45:03.910Z,39.38
2024-05-09T09:45:56.810Z,39.38
2024-05-09T09:46:55.860Z,39.38
2024-05-09T09:47:55.887Z,39.38
2024-05-09T09:48:55.879Z,45.00
2024-05-09T09:49:55.709Z,45.00
2024-05-09T09:50:55.726Z,45.00
2024-05-09T09:51:55.689Z,45.00
2024-05-09T09:52:55.704Z,45.00
2024-05-09T09:53:55.673Z,45.00
2024-05-09T09:54:55.676Z,50.62
2024-05-09T09:55:55.661Z,50.62
2024-05-09T09:56:55.608Z,61.88
2024-05-09T09:57:55.805Z,84.38
2024-05-09T09:58:55.621Z,67.50
2024-05-09T09:59:55.600Z,106.88
2024-05-09T10:00:55.755Z,135.00
2024-05-09T10:01:55.640Z,168.75
2024-05-09T10:02:55.596Z,151.88
2024-05-09T10:03:55.686Z,168.75
2024-05-09T10:04:55.633Z,123.75
2024-05-09T10:05:55.721Z,78.75
2024-05-09T10:06:55.574Z,67.50
2024-05-09T10:07:55.491Z,157.50
2024-05-09T10:08:55.500Z,61.88
2024-05-09T10:09:55.531Z,56.25
2024-05-09T10:10:55.703Z,50.62
2024-05-09T10:12:00.148Z,50.62
2024-05-09T10:12:56.492Z,50.62
2024-05-09T10:13:55.413Z,45.00
2024-05-09T10:14:55.488Z,45.00
2024-05-09T10:15:55.392Z,45.00
2024-05-09T10:16:55.387Z,45.00
2024-05-09T10:17:55.478Z,45.00
2024-05-09T10:18:55.501Z,45.00
2024-05-09T10:19:55.378Z,45.00
2024-05-09T10:20:55.314Z,39.38
2024-05-09T10:21:55.338Z,50.62
2024-05-09T10:22:55.282Z,50.62
2024-05-09T10:23:55.292Z,56.25
2024-05-09T10:24:55.374Z,50.62
2024-05-09T10:25:55.251Z,50.62
2024-05-09T10:26:55.245Z,50.62
2024-05-09T10:27:55.253Z,50.62
2024-05-09T10:28:55.224Z,56.25
2024-05-09T10:29:55.233Z,61.88
2024-05-09T10:30:55.231Z,50.62
2024-05-09T10:31:55.214Z,50.62
2024-05-09T10:32:55.232Z,50.62
2024-05-09T10:33:55.555Z,50.62
2024-05-09T10:34:55.235Z,61.88
2024-05-09T10:35:55.133Z,50.62
2024-05-09T10:36:55.683Z,50.62
2024-05-09T10:37:55.104Z,45.00
2024-05-09T10:38:55.151Z,50.62
2024-05-09T10:39:55.129Z,56.25
2024-05-09T10:40:55.093Z,56.25
2024-05-09T10:41:55.064Z,56.25
2024-05-09T10:42:55.082Z,50.62
2024-05-09T10:43:55.085Z,50.62
2024-05-09T10:44:55.029Z,50.62
2024-05-09T10:45:55.042Z,50.62
2024-05-09T10:46:55.099Z,50.62
2024-05-09T10:47:55.194Z,61.88
2024-05-09T10:48:55.116Z,61.88
2024-05-09T10:49:55.051Z,61.88
2024-05-09T10:50:54.928Z,56.25
2024-05-09T10:51:54.974Z,61.88
2024-05-09T10:52:54.908Z,50.62
2024-05-09T10:53:54.881Z,50.62
2024-05-09T10:54:54.945Z,56.25
2024-05-09T10:55:54.897Z,61.88
2024-05-09T10:56:54.863Z,67.50
2024-05-09T10:57:54.892Z,78.75
2024-05-09T10:58:54.826Z,157.50
2024-05-09T10:59:54.795Z,106.88
2024-05-09T11:00:54.959Z,73.12
2024-05-09T11:01:54.887Z,95.62
2024-05-09T11:02:54.779Z,135.00
2024-05-09T11:03:54.875Z,163.12
2024-05-09T11:04:54.934Z,163.12
2024-05-09T11:05:54.839Z,163.12
2024-05-09T11:06:54.784Z,163.12
2024-05-09T11:07:54.732Z,163.12
2024-05-09T11:08:54.733Z,163.12
2024-05-09T11:09:54.742Z,168.75
2024-05-09T11:10:54.792Z,168.75
2024-05-09T11:11:54.692Z,168.75
2024-05-09T11:12:54.708Z,168.75
2024-05-09T11:13:54.623Z,236.25
2024-05-09T11:14:54.620Z,213.75
2024-05-09T11:15:54.862Z,219.38
2024-05-09T11:16:54.589Z,219.38
2024-05-09T11:17:54.695Z,213.75
2024-05-09T11:18:55.011Z,213.75
2024-05-09T11:19:54.607Z,208.12
2024-05-09T11:20:54.526Z,202.50
2024-05-09T11:21:54.545Z,196.88
2024-05-09T11:22:54.496Z,196.88
2024-05-09T11:23:54.534Z,202.50
2024-05-09T11:24:54.605Z,196.88
2024-05-09T11:25:54.467Z,196.88
2024-05-09T11:26:54.495Z,196.88
2024-05-09T11:27:54.529Z,168.75
2024-05-09T11:28:54.438Z,174.38
2024-05-09T11:29:54.407Z,174.38
2024-05-09T11:30:54.424Z,174.38
2024-05-09T11:31:54.430Z,174.38
2024-05-09T11:32:54.477Z,180.00
2024-05-09T11:33:54.690Z,157.50
2024-05-09T11:34:54.345Z,168.75
2024-05-09T11:35:54.317Z,174.38
2024-05-09T11:36:54.400Z,174.38
2024-05-09T11:37:54.330Z,174.38
2024-05-09T11:38:54.278Z,168.75
2024-05-09T11:39:54.371Z,73.12
2024-05-09T11:40:54.303Z,73.12
2024-05-09T11:41:54.238Z,73.12
2024-05-09T11:42:54.342Z,73.12
2024-05-09T11:43:54.232Z,73.12
2024-05-09T11:44:54.225Z,73.12
2024-05-09T11:45:54.663Z,151.88
2024-05-09T11:46:54.190Z,163.12
2024-05-09T11:47:54.314Z,151.88
2024-05-09T11:48:54.279Z,112.50
2024-05-09T11:49:54.250Z,129.38
2024-05-09T11:50:54.128Z,84.38
2024-05-09T11:51:54.170Z,84.38
2024-05-09T11:52:54.129Z,84.38
2024-05-09T11:53:54.101Z,123.75
2024-05-09T11:54:54.131Z,95.62
2024-05-09T11:55:54.061Z,135.00
2024-05-09T11:56:54.091Z,95.62
2024-05-09T11:57:54.078Z,73.12
2024-05-09T11:58:54.039Z,67.50
2024-05-09T11:59:54.019Z,67.50
2024-05-09T12:00:54.060Z,67.50
2024-05-09T12:01:54.037Z,67.50
2024-05-09T12:02:54.008Z,61.88
2024-05-09T12:03:54.202Z,61.88
2024-05-09T12:04:54.143Z,61.88
2024-05-09T12:05:54.001Z,56.25
2024-05-09T12:06:53.980Z,56.25
2024-05-09T12:07:53.924Z,56.25
2024-05-09T12:08:54.060Z,61.88
2024-05-09T12:09:54.101Z,61.88
2024-05-09T12:10:54.100Z,61.88
2024-05-09T12:11:53.949Z,61.88
2024-05-09T12:12:53.910Z,61.88
2024-05-09T12:13:53.863Z,67.50
2024-05-09T12:14:53.926Z,73.12
2024-05-09T12:15:54.000Z,73.12
2024-05-09T12:16:53.879Z,67.50
2024-05-09T12:17:54.267Z,67.50
2024-05-09T12:18:54.074Z,73.12
2024-05-09T12:19:53.775Z,78.75
2024-05-09T12:20:53.758Z,106.88
2024-05-09T12:21:53.781Z,151.88
2024-05-09T12:22:53.710Z,73.12
2024-05-09T12:23:53.707Z,101.25
2024-05-09T12:24:53.782Z,67.50
2024-05-09T12:25:53.689Z,67.50
2024-05-09T12:26:53.656Z,67.50
2024-05-09T12:27:53.679Z,67.50
2024-05-09T12:28:53.637Z,67.50
2024-05-09T12:29:53.647Z,67.50
2024-05-09T12:30:53.690Z,67.50
2024-05-09T12:31:53.633Z,67.50
2024-05-09T12:32:53.693Z,67.50
2024-05-09T12:33:53.635Z,67.50
2024-05-09T12:34:53.581Z,67.50
2024-05-09T12:35:53.577Z,67.50
2024-05-09T12:36:53.586Z,73.12
2024-05-09T12:37:53.527Z,90.00
2024-05-09T12:38:53.524Z,106.88
2024-05-09T12:39:53.537Z,101.25
2024-05-09T12:40:53.701Z,78.75
2024-05-09T12:41:53.493Z,67.50
2024-05-09T12:42:53.532Z,67.50
2024-05-09T12:43:53.446Z,67.50
2024-05-09T12:44:53.467Z,67.50
2024-05-09T12:45:53.562Z,67.50
2024-05-09T12:46:53.399Z,78.75
2024-05-09T12:47:53.558Z,106.88
2024-05-09T12:48:53.859Z,106.88
2024-05-09T12:49:53.394Z,157.50
2024-05-09T12:50:53.396Z,174.38
2024-05-09T12:51:53.407Z,180.00
2024-05-09T12:52:53.416Z,95.62
2024-05-09T12:53:53.311Z,101.25
2024-05-09T12:54:53.385Z,101.25
2024-05-09T12:55:57.106Z,101.25
2024-05-09T12:56:54.304Z,101.25
2024-05-09T12:57:53.313Z,95.62
2024-05-09T12:58:53.309Z,90.00
2024-05-09T12:59:53.265Z,39.38
2024-05-09T13:00:53.499Z,39.38